Time;durP1;ratioP1;P1;durP2;ratioP2;P2;SDS_P1;SDS_P2;PMS_P1;PMS_P2;Temp;Humidity;BMP_temperature;BMP_pressure;BME280_temperature;BME280_humidity;BME280_pressure;Samples;Min_cycle;Max_cycle;Signal;HPM_P1;HPM_P2
2022/12/14 00:00:45;;;;;;;28.90;16.02;;;;;;;-2.34;93.22;100634.28;5021976;28;20040;-68
2022/12/14 00:03:12;;;;;;;29.70;15.13;;;;;;;-2.38;93.04;100632.81;5015424;28;20033;-66
2022/12/14 00:05:37;;;;;;;33.83;15.20;;;;;;;-2.37;93.05;100639.88;5017818;28;20101;-68
2022/12/14 00:08:03;;;;;;;26.63;15.20;;;;;;;-2.38;92.75;100632.81;5019981;28;20112;-68
2022/12/14 00:10:28;;;;;;;29.40;14.80;;;;;;;-2.44;93.21;100629.75;5020714;28;20034;-71
2022/12/14 00:12:54;;;;;;;34.97;14.32;;;;;;;-2.40;93.12;100633.91;5024070;28;20104;-69
2022/12/14 00:15:19;;;;;;;28.17;14.63;;;;;;;-2.37;92.58;100625.59;5021779;28;20034;-70
2022/12/14 00:17:44;;;;;;;27.45;13.43;;;;;;;-2.42;92.87;100619.78;5018672;28;20381;-69
2022/12/14 00:20:10;;;;;;;30.95;14.68;;;;;;;-2.41;93.40;100625.00;5022612;28;20061;-68
2022/12/14 00:22:35;;;;;;;28.92;14.25;;;;;;;-2.38;92.17;100626.56;5016400;28;20543;-68
2022/12/14 00:25:01;;;;;;;29.92;15.75;;;;;;;-2.42;92.60;100617.09;5025969;28;20022;-69
2022/12/14 00:27:27;;;;;;;36.85;14.73;;;;;;;-2.44;93.35;100610.97;5019542;28;20033;-68
2022/12/14 00:29:52;;;;;;;29.63;15.20;;;;;;;-2.44;92.88;100606.47;5024247;28;20029;-69
2022/12/14 00:32:18;;;;;;;28.55;14.80;;;;;;;-2.43;92.45;100593.91;5022661;28;20033;-68
2022/12/14 00:34:43;;;;;;;28.17;14.98;;;;;;;-2.42;92.50;100592.97;5020364;28;20021;-68
2022/12/14 00:37:08;;;;;;;26.55;13.85;;;;;;;-2.45;92.60;100588.69;5022735;28;20084;-69
2022/12/14 00:39:34;;;;;;;27.20;13.40;;;;;;;-2.45;92.26;100585.16;5024114;28;20033;-69
2022/12/14 00:41:59;;;;;;;30.35;14.93;;;;;;;-2.44;92.64;100578.81;5026055;28;20117;-69
2022/12/14 00:44:25;;;;;;;29.08;13.38;;;;;;;-2.46;92.58;100584.28;5025078;28;20099;-68
2022/12/14 00:46:50;;;;;;;31.65;14.00;;;;;;;-2.48;92.60;100578.19;5020811;28;20423;-69
2022/12/14 00:49:15;;;;;;;28.60;13.63;;;;;;;-2.45;92.52;100571.75;5021875;28;20041;-68
2022/12/14 00:51:41;;;;;;;27.42;14.65;;;;;;;-2.45;91.99;100577.97;5020811;28;20077;-68
2022/12/14 00:54:06;;;;;;;26.45;14.02;;;;;;;-2.46;92.40;100576.25;5017717;28;20470;-69
2022/12/14 00:56:32;;;;;;;26.23;13.68;;;;;;;-2.37;91.25;100580.03;5020959;28;20037;-69
2022/12/14 00:58:57;;;;;;;25.83;13.52;;;;;;;-2.40;91.11;100572.25;5022527;28;20472;-69
2022/12/14 01:01:23;;;;;;;23.52;12.88;;;;;;;-2.36;91.67;100566.50;5019017;28;20037;-68
2022/12/14 01:03:48;;;;;;;26.73;13.25;;;;;;;-2.33;90.01;100552.00;5012809;28;20033;-68
2022/12/14 01:06:20;;;;;;;24.13;13.68;;;;;;;-2.35;90.77;100549.44;5023519;28;20289;-68
2022/12/14 01:08:45;;;;;;;28.15;13.77;;;;;;;-2.34;90.96;100555.66;5013723;28;20453;-68
2022/12/14 01:11:12;;;;;;;25.45;14.23;;;;;;;-2.39;90.83;100555.16;5022944;28;20160;-68
2022/12/14 01:13:38;;;;;;;26.45;13.15;;;;;;;-2.38;90.81;100562.22;5018195;28;20116;-68
2022/12/14 01:16:06;;;;;;;31.30;13.40;;;;;;;-2.36;90.25;100553.09;5023721;28;20500;-69
2022/12/14 01:18:34;;;;;;;29.75;12.95;;;;;;;-2.35;90.53;100556.63;5019371;28;20077;-68
2022/12/14 01:21:14;;;;;;;25.73;12.45;;;;;;;-2.36;90.86;100550.41;5024171;28;20025;-69
2022/12/14 01:23:41;;;;;;;22.17;13.38;;;;;;;-2.36;90.76;100561.13;5025466;28;20557;-69
2022/12/14 01:26:06;;;;;;;26.80;12.98;;;;;;;-2.33;90.58;100555.53;5023999;28;20473;-70
2022/12/14 01:28:34;;;;;;;24.80;13.38;;;;;;;-2.35;90.98;100559.31;5022075;28;20030;-67
2022/12/14 01:31:06;;;;;;;26.60;14.07;;;;;;;-2.38;90.99;100565.78;5027609;28;20029;-68
2022/12/14 01:33:31;;;;;;;24.38;13.27;;;;;;;-2.36;90.37;100568.34;5020095;28;20051;-71
2022/12/14 01:36:01;;;;;;;27.27;13.85;;;;;;;-2.29;89.74;100570.41;5016558;28;20034;-68
2022/12/14 01:38:27;;;;;;;25.05;13.40;;;;;;;-2.32;90.26;100581.38;5016639;28;20156;-69
2022/12/14 01:40:56;;;;;;;27.38;12.73;;;;;;;-2.33;90.23;100574.31;5020277;28;20400;-70
2022/12/14 01:43:22;;;;;;;24.55;13.95;;;;;;;-2.27;89.37;100570.25;5019582;28;20397;-68
2022/12/14 01:45:47;;;;;;;25.55;12.63;;;;;;;-2.33;89.83;100554.66;5021743;28;20059;-68
2022/12/14 01:48:13;;;;;;;24.17;13.30;;;;;;;-2.34;89.71;100558.34;5016926;28;20024;-68
2022/12/14 01:50:42;;;;;;;24.40;13.13;;;;;;;-2.33;89.97;100560.91;5018903;28;20092;-70
2022/12/14 01:53:14;;;;;;;26.33;12.65;;;;;;;-2.39;90.34;100549.81;5018416;28;20084;-68
2022/12/14 01:55:48;;;;;;;24.65;12.75;;;;;;;-2.39;90.77;100556.03;5020445;28;20037;-68
2022/12/14 01:58:16;;;;;;;24.80;13.15;;;;;;;-2.41;89.85;100547.25;5015005;28;20500;-68
2022/12/14 02:00:43;;;;;;;24.08;12.82;;;;;;;-2.42;89.93;100548.22;5020302;28;20492;-70
2022/12/14 02:03:14;;;;;;;25.33;12.77;;;;;;;-2.40;90.71;100543.59;5019188;28;20677;-68
2022/12/14 02:05:44;;;;;;;27.65;13.48;;;;;;;-2.41;90.62;100536.50;5025113;28;20116;-68
2022/12/14 02:08:10;;;;;;;22.65;12.13;;;;;;;-2.41;90.47;100541.03;5017682;28;20315;-69
2022/12/14 02:10:36;;;;;;;22.17;11.77;;;;;;;-2.36;90.04;100554.94;5019918;28;20149;-68
2022/12/14 02:13:08;;;;;;;23.30;12.65;;;;;;;-2.41;91.35;100546.41;5022600;28;20805;-71
2022/12/14 02:15:37;;;;;;;25.25;13.63;;;;;;;-2.35;90.86;100544.06;5019254;28;20061;-71
2022/12/14 02:18:04;;;;;;;26.42;13.27;;;;;;;-2.41;90.25;100543.72;5016853;28;20087;-69
2022/12/14 02:20:39;;;;;;;28.73;13.50;;;;;;;-2.40;90.19;100545.44;5017368;28;20037;-69
2022/12/14 02:23:08;;;;;;;28.33;13.43;;;;;;;-2.41;90.57;100555.28;5017922;28;20052;-68
2022/12/14 02:26:19;;;;;;;25.90;12.90;;;;;;;-2.45;90.03;100548.50;5022315;28;20069;-68
2022/12/14 02:29:09;;;;;;;26.60;12.13;;;;;;;-2.43;90.88;100553.69;5019330;28;20096;-67
2022/12/14 02:31:40;;;;;;;22.42;12.60;;;;;;;-2.47;91.04;100546.91;5024124;28;20037;-66
2022/12/14 02:34:10;;;;;;;23.60;13.30;;;;;;;-2.46;90.28;100553.97;5026136;28;20152;-69
2022/12/14 02:36:51;;;;;;;27.52;13.13;;;;;;;-2.48;90.81;100545.16;5022672;28;20374;-68
2022/12/14 02:39:54;;;;;;;23.42;12.15;;;;;;;-2.44;90.67;100552.00;5024089;28;20611;-69
2022/12/14 02:42:56;;;;;;;25.70;12.57;;;;;;;-2.47;90.85;100558.47;4975694;28;20041;-68
2022/12/14 02:45:31;;;;;;;25.48;11.88;;;;;;;-2.45;91.06;100542.25;5022874;28;20091;-67
2022/12/14 02:48:13;;;;;;;26.98;12.05;;;;;;;-2.50;91.52;100542.63;5022249;28;20049;-68
2022/12/14 02:50:41;;;;;;;27.80;12.80;;;;;;;-2.51;91.16;100543.59;5026221;28;20455;-68
2022/12/14 02:53:12;;;;;;;28.48;12.20;;;;;;;-2.54;91.12;100537.63;5021836;28;20048;-68
2022/12/14 02:55:44;;;;;;;26.10;12.60;;;;;;;-2.57;91.12;100528.00;5029785;28;20033;-67
2022/12/14 02:58:16;;;;;;;22.48;12.43;;;;;;;-2.53;90.29;100536.63;5015847;28;20044;-67
2022/12/14 03:00:42;;;;;;;35.90;12.98;;;;;;;-2.55;91.79;100534.09;5021741;28;20025;-68
2022/12/14 03:03:08;;;;;;;22.45;12.27;;;;;;;-2.57;90.49;100530.69;5026042;28;20130;-68
2022/12/14 03:05:34;;;;;;;23.00;13.18;;;;;;;-2.55;90.08;100522.53;5014727;28;20542;-69
2022/12/14 03:08:05;;;;;;;29.00;13.82;;;;;;;-2.49;89.22;100530.94;5023902;28;20033;-67
2022/12/14 03:10:55;;;;;;;25.55;12.65;;;;;;;-2.53;90.29;100520.56;5024123;28;20037;-69
2022/12/14 03:13:34;;;;;;;25.63;12.20;;;;;;;-2.54;90.22;100517.03;5022318;28;20068;-67
2022/12/14 03:16:29;;;;;;;28.23;12.35;;;;;;;-2.55;90.39;100512.66;5022515;28;20051;-69
2022/12/14 03:19:03;;;;;;;20.02;10.95;;;;;;;-2.53;89.29;100516.06;5024337;28;20036;-68
2022/12/14 03:21:35;;;;;;;21.83;11.75;;;;;;;-2.55;90.56;100520.72;5023328;28;20068;-68
2022/12/14 03:24:06;;;;;;;23.00;11.90;;;;;;;-2.56;90.48;100508.28;5024605;28;20033;-67
2022/12/14 03:26:48;;;;;;;24.42;11.73;;;;;;;-2.57;90.00;100509.22;5022854;28;20021;-66
2022/12/14 03:29:20;;;;;;;28.70;12.32;;;;;;;-2.58;90.19;100507.53;5018829;28;20030;-68
2022/12/14 03:31:55;;;;;;;27.30;12.20;;;;;;;-2.60;90.04;100497.91;5017256;28;20492;-68
2022/12/14 03:34:26;;;;;;;23.33;12.50;;;;;;;-2.60;89.82;100504.13;5017546;28;20067;-68
2022/12/14 03:37:15;;;;;;;20.40;11.98;;;;;;;-2.61;89.81;100496.22;5022435;28;20021;-69
2022/12/14 03:39:43;;;;;;;24.90;13.45;;;;;;;-2.65;90.10;100492.06;5025161;28;20035;-68
2022/12/14 03:42:38;;;;;;;23.83;12.48;;;;;;;-2.66;90.60;100491.22;5024232;28;20117;-69
2022/12/14 03:45:10;;;;;;;21.80;11.32;;;;;;;-2.64;89.61;100481.22;5025884;28;20477;-67
2022/12/14 03:47:42;;;;;;;22.05;11.20;;;;;;;-2.63;89.70;100476.75;5024655;28;20018;-67
2022/12/14 03:50:17;;;;;;;27.75;12.18;;;;;;;-2.62;89.31;100471.22;5019451;28;20033;-68
2022/12/14 03:52:55;;;;;;;27.08;11.60;;;;;;;-2.63;89.17;100471.38;5018688;28;20041;-67
2022/12/14 03:55:26;;;;;;;;;;;;;;;-2.61;89.68;100464.91;5024645;28;20068;-68
2022/12/14 03:58:10;;;;;;;20.70;11.20;;;;;;;-2.66;89.91;100455.53;5034273;28;20056;-69
2022/12/14 04:00:53;;;;;;;21.92;11.07;;;;;;;-2.67;90.68;100459.19;5020908;28;20037;-68
2022/12/14 04:04:12;;;;;;;23.98;11.50;;;;;;;-2.65;89.88;100458.09;5021261;28;20152;-67
2022/12/14 04:07:00;;;;;;;22.35;10.82;;;;;;;-2.65;89.81;100450.06;4946864;29;20523;-67
2022/12/14 04:09:36;;;;;;;22.05;11.38;;;;;;;-2.66;90.57;100453.72;4949593;29;20035;-67
2022/12/14 04:20:52;;;;;;;22.25;11.27;;;;;;;-2.68;90.58;100441.41;5023410;28;20095;-67
2022/12/14 04:26:17;;;;;;;24.08;11.73;;;;;;;-2.65;89.19;100442.00;5017279;28;20406;-68
2022/12/14 04:31:36;;;;;;;23.05;12.57;;;;;;;-2.71;89.65;100431.78;5019435;28;20424;-69
2022/12/14 04:34:05;;;;;;;18.45;10.82;;;;;;;-2.70;89.50;100446.03;5015102;28;20038;-69
2022/12/14 04:36:52;;;;;;;24.02;10.30;;;;;;;-2.73;89.98;100439.09;5017119;28;20030;-68
2022/12/14 04:39:24;;;;;;;19.50;11.03;;;;;;;-2.72;89.39;100438.13;5020675;28;20392;-68
2022/12/14 04:41:55;;;;;;;18.83;10.98;;;;;;;-2.73;89.75;100438.25;5018335;28;20030;-70
2022/12/14 04:44:30;;;;;;;24.45;10.98;;;;;;;-2.69;89.08;100431.66;5021830;28;20034;-68
2022/12/14 04:46:57;;;;;;;23.10;11.25;;;;;;;-2.73;88.85;100428.38;5017352;28;20054;-70
2022/12/14 04:49:31;;;;;;;18.67;11.02;;;;;;;-2.70;88.61;100436.16;5020792;28;20034;-68
2022/12/14 04:52:10;;;;;;;24.10;11.35;;;;;;;-2.65;87.95;100430.44;5020869;28;20405;-69
2022/12/14 04:55:05;;;;;;;21.10;11.02;;;;;;;-2.68;88.59;100425.34;5026388;28;20192;-68
2022/12/14 04:57:36;;;;;;;19.50;10.45;;;;;;;-2.65;87.97;100422.38;5017078;28;20409;-68
2022/12/14 05:00:04;;;;;;;17.90;9.80;;;;;;;-2.68;88.27;100411.94;5033462;28;20473;-69
2022/12/14 05:02:48;;;;;;;24.17;12.43;;;;;;;-2.70;88.66;100420.09;5023389;28;20033;-69
2022/12/14 05:05:25;;;;;;;21.15;10.68;;;;;;;-2.69;88.02;100420.94;5023193;28;20135;-68
2022/12/14 05:08:16;;;;;;;17.77;10.13;;;;;;;-2.68;88.58;100415.44;5023065;28;20033;-70
2022/12/14 05:10:55;;;;;;;22.33;11.10;;;;;;;-2.68;87.83;100409.25;5022898;28;20119;-70
2022/12/14 05:13:28;;;;;;;20.83;10.65;;;;;;;-2.71;88.52;100420.22;5018952;28;20036;-69
2022/12/14 05:15:56;;;;;;;21.92;10.90;;;;;;;-2.74;89.01;100415.94;5025424;28;20552;-69
2022/12/14 05:18:22;;;;;;;20.83;11.15;;;;;;;-2.75;89.39;100414.25;5021076;28;20053;-68
2022/12/14 05:20:48;;;;;;;24.97;12.90;;;;;;;-2.78;90.45;100414.50;5025356;28;20056;-68
2022/12/14 05:23:15;;;;;;;28.38;12.75;;;;;;;-2.82;90.48;100405.03;5021020;28;20283;-68
2022/12/14 05:25:40;;;;;;;24.30;12.52;;;;;;;-2.83;91.08;100411.31;5022107;28;20457;-68
2022/12/14 05:28:06;;;;;;;20.65;11.30;;;;;;;-2.90;91.89;100414.66;5020303;28;20108;-68
2022/12/14 05:30:31;;;;;;;28.13;12.23;;;;;;;-2.93;92.09;100412.19;5024834;28;21270;-68
2022/12/14 05:32:57;;;;;;;31.33;13.57;;;;;;;-2.98;92.86;100409.03;5021596;28;20028;-70
2022/12/14 05:35:23;;;;;;;23.67;12.70;;;;;;;-3.01;93.03;100403.91;5020059;28;20088;-68
2022/12/14 05:37:48;;;;;;;26.17;13.60;;;;;;;-3.05;93.13;100411.34;5022401;28;20017;-68
2022/12/14 05:40:14;;;;;;;25.88;13.10;;;;;;;-3.08;93.88;100411.63;5024104;28;20029;-71
2022/12/14 05:42:39;;;;;;;26.85;14.10;;;;;;;-3.10;94.19;100410.84;5024687;28;20043;-68
2022/12/14 05:45:05;;;;;;;23.80;13.82;;;;;;;-3.09;93.27;100412.59;5026459;28;20380;-69
2022/12/14 05:47:31;;;;;;;27.60;14.17;;;;;;;-3.09;93.74;100425.13;5021506;28;20404;-66
2022/12/14 05:49:56;;;;;;;28.63;13.70;;;;;;;-3.13;93.41;100412.94;5026545;28;20112;-70
2022/12/14 05:52:25;;;;;;;25.80;14.00;;;;;;;-3.17;93.40;100408.78;5018288;28;20559;-67
2022/12/14 05:54:51;;;;;;;28.20;14.07;;;;;;;-3.21;93.58;100410.03;5022519;28;20034;-68
2022/12/14 05:57:16;;;;;;;26.80;13.98;;;;;;;-3.21;93.36;100412.72;5019222;28;20052;-68
2022/12/14 05:59:41;;;;;;;27.77;14.45;;;;;;;-3.27;93.86;100406.00;5029610;28;20492;-70
2022/12/14 06:02:07;;;;;;;23.27;13.20;;;;;;;-3.28;93.82;100406.97;5022504;28;20040;-66
2022/12/14 06:04:32;;;;;;;27.77;13.18;;;;;;;-3.32;93.61;100402.81;5021006;28;20033;-68
2022/12/14 06:06:57;;;;;;;24.23;13.27;;;;;;;-3.36;93.88;100403.19;5022731;28;20406;-69
2022/12/14 06:09:23;;;;;;;28.30;13.82;;;;;;;-3.39;94.08;100401.63;5015420;28;20034;-68
2022/12/14 06:11:49;;;;;;;32.22;13.85;;;;;;;-3.41;93.75;100406.25;5023281;28;20053;-66
2022/12/14 06:14:14;;;;;;;23.30;13.00;;;;;;;-3.43;93.63;100400.16;5015925;28;20033;-68
2022/12/14 06:16:41;;;;;;;29.05;13.52;;;;;;;-3.43;93.42;100397.47;5026470;28;20053;-67
2022/12/14 06:19:08;;;;;;;28.65;13.63;;;;;;;-3.44;93.57;100402.94;5020759;28;20505;-67
2022/12/14 06:21:36;;;;;;;24.60;13.85;;;;;;;-3.50;94.30;100395.38;5022259;28;20049;-68
2022/12/14 06:24:02;;;;;;;22.83;13.95;;;;;;;-3.55;93.50;100403.78;5025144;28;20059;-70
2022/12/14 06:26:30;;;;;;;28.83;15.50;;;;;;;-3.60;93.91;100402.44;5022566;28;20029;-67
2022/12/14 06:28:56;;;;;;;22.38;13.20;;;;;;;-3.62;94.59;100396.34;5021474;28;20111;-70
2022/12/14 06:31:24;;;;;;;25.83;13.20;;;;;;;-3.60;94.58;100400.63;5018411;28;20030;-68
2022/12/14 06:33:50;;;;;;;26.33;13.13;;;;;;;-3.63;93.98;100395.50;5024812;28;20065;-69
2022/12/14 06:36:26;;;;;;;23.97;13.20;;;;;;;-3.67;93.71;100404.75;5019095;28;20029;-67
2022/12/14 06:38:53;;;;;;;21.40;12.98;;;;;;;-3.67;94.13;100410.09;5023963;28;20029;-68
2022/12/14 06:41:19;;;;;;;;;;;;;;;-3.72;93.76;100404.25;5026091;28;20433;-67
2022/12/14 06:43:45;;;;;;;23.25;11.63;;;;;;;-3.76;93.86;100396.56;5023167;28;20356;-67
2022/12/14 06:46:13;;;;;;;28.60;13.32;;;;;;;-3.77;93.58;100401.06;5023906;28;20029;-68
2022/12/14 06:48:38;;;;;;;23.67;12.88;;;;;;;-3.80;94.21;100397.78;5021306;28;20393;-66
2022/12/14 06:51:05;;;;;;;26.50;13.93;;;;;;;-3.84;93.83;100399.00;5018716;28;20041;-67
2022/12/14 06:53:31;;;;;;;;;;;;;;;-3.84;93.75;100399.00;5021889;28;20045;-67
2022/12/14 06:56:13;;;;;;;26.27;12.65;;;;;;;-3.90;93.63;100394.94;5017137;28;19924;-68
2022/12/14 06:58:39;;;;;;;23.17;12.57;;;;;;;-3.94;93.82;100393.50;5020989;28;20397;-67
2022/12/14 07:01:08;;;;;;;28.90;13.57;;;;;;;-4.00;94.13;100393.97;5019950;28;20033;-68
2022/12/14 07:03:34;;;;;;;20.88;12.68;;;;;;;-4.05;94.02;100398.81;5025849;28;20037;-68
2022/12/14 07:06:01;;;;;;;19.05;10.43;;;;;;;-4.08;94.38;100403.50;5022370;28;20025;-69
2022/12/14 07:08:27;;;;;;;;;;;;;;;-4.11;94.58;100401.94;5021935;28;20167;-69
2022/12/14 07:10:52;;;;;;;26.35;11.60;;;;;;;-4.12;94.73;100402.91;5020537;28;19913;-69
2022/12/14 07:13:18;;;;;;;26.38;13.40;;;;;;;-4.14;94.62;100406.66;5024045;28;20025;-67
2022/12/14 07:15:50;;;;;;;29.55;11.82;;;;;;;-4.19;95.17;100401.66;5017819;28;20033;-67
2022/12/14 07:18:15;;;;;;;21.20;12.13;;;;;;;-4.16;95.24;100405.94;5018381;28;20029;-66
2022/12/14 07:20:41;;;;;;;20.63;12.65;;;;;;;-4.17;94.79;100398.88;5020391;28;20585;-68
2022/12/14 07:23:07;;;;;;;24.83;13.13;;;;;;;-4.21;95.03;100400.94;5021224;28;20496;-68
2022/12/14 07:25:32;;;;;;;21.75;12.25;;;;;;;-4.21;94.62;100403.63;5018230;28;20038;-68
2022/12/14 07:27:57;;;;;;;25.20;13.60;;;;;;;-4.26;95.18;100403.09;5014219;28;20457;-67
2022/12/14 07:30:23;;;;;;;22.85;13.05;;;;;;;-4.27;95.46;100409.41;5016799;28;20542;-67
2022/12/14 07:32:48;;;;;;;24.10;13.20;;;;;;;-4.26;95.37;100411.13;5015201;28;20425;-67
2022/12/14 07:35:13;;;;;;;29.08;13.73;;;;;;;-4.28;94.80;100413.03;5014473;28;20030;-67
2022/12/14 07:37:39;;;;;;;22.42;12.55;;;;;;;-4.29;95.42;100405.13;5011351;28;20041;-67
2022/12/14 07:40:05;;;;;;;21.92;13.13;;;;;;;-4.32;95.36;100408.06;5014575;28;20034;-68
2022/12/14 07:42:30;;;;;;;27.08;14.02;;;;;;;-4.36;94.80;100407.44;5023262;28;20374;-67
2022/12/14 07:44:56;;;;;;;28.10;14.00;;;;;;;-4.32;95.25;100416.94;5022672;28;20071;-67
2022/12/14 07:47:21;;;;;;;26.10;13.35;;;;;;;-4.37;95.55;100419.09;5020007;28;20088;-70
2022/12/14 07:49:46;;;;;;;34.42;14.13;;;;;;;-4.37;95.17;100427.13;5026321;28;20045;-67
2022/12/14 07:52:12;;;;;;;29.73;13.57;;;;;;;-4.37;94.88;100421.78;5018344;28;20064;-67
2022/12/14 07:54:37;;;;;;;23.65;13.63;;;;;;;-4.40;94.80;100435.34;5014997;28;20033;-66
2022/12/14 07:57:03;;;;;;;24.25;12.98;;;;;;;-4.42;95.33;100431.94;5016156;28;20501;-67
2022/12/14 07:59:28;;;;;;;26.10;12.82;;;;;;;-4.51;94.97;100429.94;5012633;28;20680;-67
2022/12/14 08:01:54;;;;;;;29.17;13.55;;;;;;;-4.55;95.48;100441.81;5017218;28;20465;-67
2022/12/14 08:04:19;;;;;;;21.08;11.23;;;;;;;-4.60;95.31;100437.78;5009523;28;20151;-67
2022/12/14 08:06:47;;;;;;;32.67;10.32;;;;;;;-4.61;95.81;100439.59;5017236;28;20025;-66
2022/12/14 08:09:12;;;;;;;;;;;;;;;-4.66;95.74;100444.41;5017819;28;20063;-66
2022/12/14 08:11:39;;;;;;;26.52;13.90;;;;;;;-4.68;95.50;100445.50;5014850;28;19935;-66
2022/12/14 08:14:07;;;;;;;34.13;14.38;;;;;;;-4.69;95.19;100452.66;5010331;28;20026;-66
2022/12/14 08:16:33;;;;;;;32.38;15.50;;;;;;;-4.73;95.65;100445.84;5011848;28;20525;-66
2022/12/14 08:18:59;;;;;;;33.13;16.00;;;;;;;-4.74;95.61;100446.81;5010785;28;20038;-68
2022/12/14 08:21:26;;;;;;;21.17;11.98;;;;;;;-4.73;96.04;100444.97;5017017;28;20038;-66
2022/12/14 08:23:53;;;;;;;32.88;15.85;;;;;;;-4.79;96.04;100435.59;5008864;28;20472;-68
2022/12/14 08:26:19;;;;;;;34.17;14.68;;;;;;;-4.74;95.51;100438.78;5019906;28;20384;-66
2022/12/14 08:28:44;;;;;;;28.75;15.65;;;;;;;-4.72;95.13;100449.34;5015214;28;20040;-66
2022/12/14 08:31:15;;;;;;;34.22;16.10;;;;;;;-4.70;95.07;100448.25;5023022;28;20125;-69
2022/12/14 08:33:42;;;;;;;28.00;14.48;;;;;;;-4.63;95.12;100452.22;5018323;28;20029;-67
2022/12/14 08:36:11;;;;;;;;;;;;;;;-4.64;94.32;100445.19;5018366;28;20029;-66
2022/12/14 08:38:38;;;;;;;28.63;14.75;;;;;;;-4.64;94.69;100447.84;5015936;28;19919;-66
2022/12/14 08:41:05;;;;;;;29.23;14.60;;;;;;;-4.60;94.25;100451.13;5019733;28;20535;-66
2022/12/14 08:43:31;;;;;;;29.83;15.93;;;;;;;-4.60;94.35;100453.81;5017130;28;20034;-66
2022/12/14 08:45:56;;;;;;;35.30;15.73;;;;;;;-4.57;94.29;100456.25;5020330;28;20026;-69
2022/12/14 08:48:23;;;;;;;29.60;14.63;;;;;;;-4.56;94.83;100452.59;5016219;28;20709;-66
2022/12/14 08:50:49;;;;;;;29.15;15.35;;;;;;;-4.50;94.32;100458.34;5019424;28;20052;-67
2022/12/14 08:53:14;;;;;;;28.27;14.43;;;;;;;-4.46;94.38;100462.53;5016957;28;20037;-69
2022/12/14 08:55:39;;;;;;;29.45;15.00;;;;;;;-4.39;93.69;100461.09;5022030;28;20378;-68
2022/12/14 08:58:05;;;;;;;24.80;13.65;;;;;;;-4.32;93.37;100453.47;5011257;28;20041;-67
2022/12/14 09:00:30;;;;;;;26.85;13.85;;;;;;;-4.29;93.15;100461.25;5030279;28;20099;-67
2022/12/14 09:02:56;;;;;;;28.60;13.13;;;;;;;-4.17;92.57;100453.19;5021057;28;20044;-69
2022/12/14 09:05:21;;;;;;;29.52;13.63;;;;;;;-4.11;92.12;100458.06;5022342;28;20061;-66
2022/12/14 09:07:46;;;;;;;23.77;12.90;;;;;;;-4.08;92.22;100455.19;5019788;28;20395;-66
2022/12/14 09:10:12;;;;;;;25.95;12.88;;;;;;;-4.06;91.47;100453.22;5019625;28;20145;-66
2022/12/14 09:12:38;;;;;;;20.70;11.93;;;;;;;-3.96;90.66;100454.25;5018542;28;20129;-67
2022/12/14 09:15:04;;;;;;;26.75;13.10;;;;;;;-3.90;90.19;100453.78;5024087;28;20160;-67
2022/12/14 09:17:29;;;;;;;27.30;13.68;;;;;;;-3.86;90.22;100455.25;5020363;28;20798;-67
2022/12/14 09:19:56;;;;;;;20.90;12.48;;;;;;;-3.86;89.83;100465.13;5015905;28;20030;-68
2022/12/14 09:22:22;;;;;;;;;;;;;;;-3.81;89.86;100463.78;5015485;28;20038;-67
2022/12/14 09:24:49;;;;;;;26.85;12.77;;;;;;;-3.71;89.19;100459.44;5019070;28;19920;-68
2022/12/14 09:27:14;;;;;;;26.27;11.63;;;;;;;-3.66;89.19;100465.31;5021961;28;20417;-67
2022/12/14 09:29:40;;;;;;;17.25;9.80;;;;;;;-3.62;88.73;100448.06;5020695;28;20034;-68
2022/12/14 09:32:05;;;;;;;25.63;12.80;;;;;;;-3.58;88.70;100462.88;5019459;28;20041;-68
2022/12/14 09:34:31;;;;;;;22.98;11.98;;;;;;;-3.53;87.63;100465.22;5016526;28;20029;-68
2022/12/14 09:36:56;;;;;;;30.38;13.55;;;;;;;-3.48;87.13;100465.72;5024903;28;20029;-68
2022/12/14 09:39:21;;;;;;;27.15;12.65;;;;;;;-3.39;86.11;100470.34;5017599;28;20401;-68
2022/12/14 09:41:55;;;;;;;25.73;12.50;;;;;;;-3.36;86.04;100475.47;5020884;28;20656;-67
2022/12/14 09:44:26;;;;;;;24.58;11.20;;;;;;;-3.36;86.02;100462.09;5015596;28;20063;-68
2022/12/14 09:47:12;;;;;;;20.40;11.98;;;;;;;-3.32;85.64;100469.75;5018183;28;20932;-68
2022/12/14 09:49:40;;;;;;;24.80;12.52;;;;;;;-3.27;85.91;100472.94;5016991;28;20026;-68
2022/12/14 09:52:14;;;;;;;23.33;10.85;;;;;;;-3.23;86.02;100482.44;5024138;28;20069;-70
2022/12/14 09:54:42;;;;;;;21.23;10.95;;;;;;;-3.17;86.33;100476.59;5022120;28;20041;-69
2022/12/14 09:57:23;;;;;;;22.92;10.82;;;;;;;-3.10;84.94;100477.81;5020125;28;20029;-68
2022/12/14 09:59:51;;;;;;;24.58;12.07;;;;;;;-3.03;85.09;100491.56;5015007;28;20485;-68
2022/12/14 10:02:52;;;;;;;23.48;11.48;;;;;;;-3.01;86.26;100494.97;5012485;28;20434;-69
2022/12/14 10:05:36;;;;;;;24.45;12.60;;;;;;;-2.96;85.20;100484.75;5016398;28;20021;-69
2022/12/14 10:08:08;;;;;;;19.40;11.07;;;;;;;-2.89;85.33;100480.63;5015183;28;20450;-70
2022/12/14 10:10:54;;;;;;;23.67;10.73;;;;;;;-2.82;84.37;100477.34;5017461;28;20026;-68
2022/12/14 10:13:29;;;;;;;30.38;11.65;;;;;;;-2.74;83.88;100477.59;5013170;28;20069;-68
2022/12/14 10:16:28;;;;;;;23.92;11.00;;;;;;;-2.66;84.61;100474.28;5013316;28;20052;-69
2022/12/14 10:18:56;;;;;;;;;;;;;;;-2.57;82.66;100465.53;5018347;28;20029;-68
2022/12/14 10:21:24;;;;;;;19.27;11.10;;;;;;;-2.56;83.44;100461.84;5021765;28;19920;-68
2022/12/14 10:23:55;;;;;;;22.70;11.57;;;;;;;-2.45;82.75;100470.75;5025507;28;20107;-68
2022/12/14 10:26:26;;;;;;;20.58;11.65;;;;;;;-2.38;83.36;100452.31;5019666;28;20076;-69
2022/12/14 10:29:13;;;;;;;23.85;12.20;;;;;;;-2.33;83.68;100459.00;5014187;28;20036;-70
2022/12/14 10:32:07;;;;;;;22.88;11.70;;;;;;;-2.22;82.70;100466.16;5019269;28;20030;-68
2022/12/14 10:34:33;;;;;;;24.73;11.38;;;;;;;-2.09;81.95;100464.19;5002580;28;20030;-68
2022/12/14 10:37:32;;;;;;;20.25;11.60;;;;;;;-1.99;81.74;100463.28;5017836;28;20062;-70
2022/12/14 10:39:57;;;;;;;22.38;11.55;;;;;;;-1.72;81.98;100469.03;5016533;28;20057;-70
2022/12/14 10:42:36;;;;;;;20.48;11.63;;;;;;;-1.69;81.57;100465.22;5021203;28;20392;-68
2022/12/14 10:45:40;;;;;;;21.17;10.70;;;;;;;-1.47;82.34;100462.41;5015658;28;20397;-68
2022/12/14 10:48:44;;;;;;;22.45;11.02;;;;;;;-1.38;82.58;100464.31;4967350;28;20034;-68
2022/12/14 10:51:21;;;;;;;26.75;11.85;;;;;;;-1.29;81.78;100456.31;5014318;28;20034;-67
2022/12/14 10:54:05;;;;;;;22.10;11.45;;;;;;;-1.30;79.29;100460.00;5022804;28;20057;-68
2022/12/14 10:56:34;;;;;;;24.63;11.65;;;;;;;-1.11;80.65;100464.63;5013121;28;20542;-69
2022/12/14 10:59:19;;;;;;;20.70;10.88;;;;;;;-1.01;79.85;100454.78;5013682;28;20037;-70
2022/12/14 11:01:51;;;;;;;24.17;10.60;;;;;;;-1.02;81.18;100443.19;5017295;28;20128;-68
2022/12/14 11:04:31;;;;;;;23.70;11.52;;;;;;;-0.93;79.55;100444.22;5014403;28;20037;-68
2022/12/14 11:06:58;;;;;;;23.30;11.23;;;;;;;-0.88;79.00;100437.47;5021757;28;20021;-70
2022/12/14 11:09:24;;;;;;;24.30;10.45;;;;;;;-0.85;80.24;100437.19;5017404;28;20049;-69
2022/12/14 11:11:59;;;;;;;26.35;9.27;;;;;;;-0.68;79.12;100433.88;5023517;28;20029;-72
2022/12/14 11:14:26;;;;;;;18.35;11.30;;;;;;;-0.60;79.25;100433.19;5014396;28;20424;-69
2022/12/14 11:16:51;;;;;;;17.58;10.55;;;;;;;-0.52;77.81;100435.03;5022089;28;20408;-70
2022/12/14 11:19:20;;;;;;;19.90;10.48;;;;;;;-0.47;76.97;100441.84;5018138;28;20033;-69
2022/12/14 11:21:46;;;;;;;22.08;10.38;;;;;;;-0.43;76.20;100427.13;5013166;28;20026;-68
2022/12/14 11:24:27;;;;;;;16.55;10.32;;;;;;;-0.34;76.42;100429.84;5017249;28;20078;-67
2022/12/14 11:26:58;;;;;;;28.45;9.90;;;;;;;-0.21;76.96;100422.38;5019248;28;20080;-66
2022/12/14 11:29:34;;;;;;;26.35;11.40;;;;;;;-0.17;75.30;100425.63;5014889;28;20033;-68
2022/12/14 11:31:59;;;;;;;25.67;11.65;;;;;;;-0.19;76.46;100431.16;5017644;28;20068;-69
2022/12/14 11:34:39;;;;;;;21.33;11.13;;;;;;;-0.06;75.55;100437.97;5012684;28;20385;-68
2022/12/14 11:37:33;;;;;;;23.30;10.45;;;;;;;0.13;73.51;100448.75;5021714;28;20033;-68
2022/12/14 11:40:03;;;;;;;14.32;8.75;;;;;;;0.03;71.82;100447.03;5002438;28;20132;-69
2022/12/14 11:42:29;;;;;;;18.67;10.20;;;;;;;0.12;73.98;100441.66;5016929;28;20110;-69